Capt. Shawn D. Martinez — WDG3504 — position and weather

sailwx.info

Track history (hours):
 
Tides and Currents Weather Stations Pressure Air Temp Water Temp Dewpoint Dewpoint Depression Visibility Wind Speed Wind Dir Waves Ship Positions

Capt. Shawn D. Martinez

Owner: Blessey, Enterprises, Inc., Harahan, LA. More information available from US FCC via Universal Licensing System and Coast Guard Vessel Documentation Center.

Last reported at 2018-Apr-23 05:30 UTC. Time now 2018-Apr-23 05:42 UTC.
Position N 32°20' W 090°54'.

Type: Towing. MMSI: 367056256.

Date/timePositionNaut miles runAvg speedWind from/ knotsBaromVisibWave heightAir tempDewpointWater temp
2018-Apr-23 05:30N 32°20' W 090°54'0 0.0
2018-Apr-23 05:00N 32°20' W 090°54'0 0.0
2018-Apr-23 04:30N 32°20' W 090°54'0 0.0
2018-Apr-23 04:00N 32°20' W 090°54'0 0.0
2018-Apr-23 03:30N 32°20' W 090°54'0 0.0
2018-Apr-23 03:00N 32°20' W 090°54'0 0.0
2018-Apr-23 02:29N 32°20' W 090°54'0 0.0
2018-Apr-23 02:00N 32°20' W 090°54'0 0.0
2018-Apr-23 01:30N 32°20' W 090°54'0 0.0
2018-Apr-23 01:00N 32°20' W 090°54'0 0.0
2018-Apr-23 00:30N 32°20' W 090°54'0 0.0
2018-Apr-23 00:00N 32°20' W 090°54'0 0.0
2018-Apr-22 23:30N 32°20' W 090°54'0 0.0
2018-Apr-22 23:00N 32°20' W 090°54'0 0.0
2018-Apr-22 22:30N 32°20' W 090°54'0 0.0
2018-Apr-22 22:00N 32°20' W 090°54'0 0.1
2018-Apr-22 21:30N 32°20' W 090°54'0 0.1
2018-Apr-22 21:00N 32°20' W 090°54'0 0.0
2018-Apr-22 20:30N 32°20' W 090°54'0 0.0
2018-Apr-22 20:00N 32°20' W 090°54'0 0.0
2018-Apr-22 19:30N 32°20' W 090°54'0 0.0
2018-Apr-22 19:00N 32°20' W 090°54'0 0.0
2018-Apr-22 18:30N 32°20' W 090°54'0 0.0
2018-Apr-22 17:59N 32°20' W 090°54'0 0.0
2018-Apr-22 17:30N 32°20' W 090°54'0 0.0
2018-Apr-22 17:00N 32°20' W 090°54'0 0.0
2018-Apr-22 16:30N 32°20' W 090°54'0 0.0
2018-Apr-22 16:00N 32°20' W 090°54'0 0.0
2018-Apr-22 15:30N 32°20' W 090°54'0 0.0
2018-Apr-22 14:59N 32°20' W 090°54'0 0.0
2018-Apr-22 14:29N 32°20' W 090°54'0 0.0
2018-Apr-22 14:00N 32°20' W 090°54'0 0.0
2018-Apr-22 13:29N 32°20' W 090°54'0 0.0
2018-Apr-22 12:57N 32°20' W 090°54'0 0.0
2018-Apr-22 12:30N 32°20' W 090°54'0 0.0
2018-Apr-22 12:00N 32°20' W 090°54'0 0.0
2018-Apr-22 11:29N 32°20' W 090°54'0 0.0
2018-Apr-22 11:00N 32°20' W 090°54'0 0.0
2018-Apr-22 10:30N 32°20' W 090°54'0 0.0
2018-Apr-22 10:00N 32°20' W 090°54'0 0.0
2018-Apr-22 09:30N 32°20' W 090°54'0 0.0
2018-Apr-22 09:00N 32°20' W 090°54'0 0.0
2018-Apr-22 08:30N 32°20' W 090°54'0 0.0
2018-Apr-22 08:00N 32°20' W 090°54'0 0.0
2018-Apr-22 07:30N 32°20' W 090°54'0 0.0
2018-Apr-22 06:59N 32°20' W 090°54'0 0.0
2018-Apr-22 06:30N 32°20' W 090°54'0 0.0
2018-Apr-22 06:00N 32°20' W 090°54'0 0.0
2018-Apr-22 05:30N 32°20' W 090°54'0 0.0
2018-Apr-22 05:00N 32°20' W 090°54'0 0.0
2018-Apr-22 04:30N 32°20' W 090°54'0 0.0
2018-Apr-22 04:00N 32°20' W 090°54'0 0.0
2018-Apr-22 03:30N 32°20' W 090°54'0 0.0
2018-Apr-22 03:00N 32°20' W 090°54'0 0.0
2018-Apr-22 02:30N 32°20' W 090°54'0 0.0
2018-Apr-22 02:00N 32°20' W 090°54'0 0.0
2018-Apr-22 01:30N 32°20' W 090°54'0 0.0
2018-Apr-22 01:00N 32°20' W 090°54'0 0.1
2018-Apr-22 00:30N 32°20' W 090°54'1 2.3
2018-Apr-22 00:00N 32°19' W 090°54'1 1.4
2018-Apr-21 23:30N 32°19' W 090°55'0 0.0
2018-Apr-21 23:00N 32°19' W 090°55'1 2.0
2018-Apr-21 22:30N 32°18' W 090°56'2 4.2
2018-Apr-21 22:00N 32°16' W 090°57'2 4.4
2018-Apr-21 21:30N 32°14' W 090°58'2 4.8
2018-Apr-21 21:00N 32°12' W 090°59'2 4.0
2018-Apr-21 20:30N 32°10' W 090°60'2 4.3
2018-Apr-21 20:00N 32°08' W 091°00'2 3.7
2018-Apr-21 19:30N 32°08' W 091°02'2 3.2
2018-Apr-21 19:00N 32°08' W 091°04'1 2.6
2018-Apr-21 18:30N 32°07' W 091°06'2 3.4
2018-Apr-21 17:53N 32°05' W 091°05'2 4.4
2018-Apr-21 17:23N 32°03' W 091°05'  
2018-Apr-17 15:39N 29°56' W 093°03'1 4.3
2018-Apr-17 15:27N 29°56' W 093°04'1 1.3
2018-Apr-17 15:00N 29°56' W 093°05'2 3.7
2018-Apr-17 14:30N 29°56' W 093°07'2 4.4
2018-Apr-17 14:00N 29°56' W 093°10'1 2.9
2018-Apr-17 13:30N 29°57' W 093°11'2 4.6
2018-Apr-17 13:00N 29°59' W 093°12'2 4.4
2018-Apr-17 12:30N 30°01' W 093°14'1 2.8
2018-Apr-17 12:00N 30°02' W 093°15'1 2.7
2018-Apr-17 11:30N 30°03' W 093°16'2 4.0
2018-Apr-17 11:00N 30°05' W 093°17'1 2.1
2018-Apr-17 10:30N 30°05' W 093°18'1 2.2
2018-Apr-17 10:00N 30°06' W 093°19'0 0.1
2018-Apr-17 09:30N 30°06' W 093°19'0 0.0
2018-Apr-17 09:00N 30°06' W 093°19'0 0.0
2018-Apr-17 08:30N 30°06' W 093°19'0 0.0
2018-Apr-17 08:00N 30°06' W 093°19'0 0.0
2018-Apr-17 07:30N 30°06' W 093°19'0 0.0
2018-Apr-17 07:00N 30°06' W 093°19'0 0.0
2018-Apr-17 06:30N 30°06' W 093°19'0 0.0
2018-Apr-17 06:00N 30°06' W 093°19'0 0.0
2018-Apr-17 05:30N 30°06' W 093°19'0 0.0
2018-Apr-17 05:00N 30°06' W 093°19'0 0.0
2018-Apr-17 04:30N 30°06' W 093°19'0 0.0
2018-Apr-17 04:00N 30°06' W 093°19'0 0.0
2018-Apr-17 03:30N 30°06' W 093°19'0 0.0
2018-Apr-17 03:00N 30°06' W 093°19'0 0.1
2018-Apr-17 02:30N 30°06' W 093°19'2 3.4
2018-Apr-17 02:00N 30°05' W 093°20'2 3.3
2018-Apr-17 01:30N 30°04' W 093°22'2 3.5
2018-Apr-17 00:59N 30°04' W 093°24'2 4.3
2018-Apr-17 00:30N 30°04' W 093°26'3 5.4
2018-Apr-17 00:00N 30°04' W 093°29'3 5.1
2018-Apr-16 23:30N 30°04' W 093°32'3 5.7
2018-Apr-16 23:00N 30°04' W 093°35'3 6.0
2018-Apr-16 22:30N 30°04' W 093°39'3 4.9
2018-Apr-16 21:55N 30°03' W 093°42'2 5.3
2018-Apr-16 21:30N 30°02' W 093°44'3 5.6
2018-Apr-16 21:00N 29°60' W 093°46'2 4.6
2018-Apr-16 20:30N 29°59' W 093°49'3 5.4
2018-Apr-16 20:00N 29°58' W 093°51'3 5.6
2018-Apr-16 19:30N 29°55' W 093°53'3 6.6
2018-Apr-16 19:00N 29°53' W 093°55'3 5.4
2018-Apr-16 18:30N 29°50' W 093°57'2 3.7
2018-Apr-16 18:00N 29°49' W 093°59'1 2.3
2018-Apr-16 17:30N 29°49' W 093°60'3 5.2
2018-Apr-16 17:00N 29°47' W 094°02'2 4.6
2018-Apr-16 16:30N 29°45' W 094°04'2 4.9
2018-Apr-16 16:00N 29°44' W 094°06'2 4.8
2018-Apr-16 15:30N 29°42' W 094°08'2 4.0
2018-Apr-16 15:00N 29°41' W 094°10'2 3.8
2018-Apr-16 14:28N 29°41' W 094°13'2 4.5
2018-Apr-16 14:00N 29°40' W 094°15'2 4.2
2018-Apr-16 13:30N 29°39' W 094°17'2 3.4
2018-Apr-16 13:00N 29°38' W 094°19'2 4.4
2018-Apr-16 12:30N 29°37' W 094°21'2 3.8
2018-Apr-16 12:00N 29°36' W 094°23'2 3.5
2018-Apr-16 11:30N 29°36' W 094°25'2 3.7
2018-Apr-16 11:00N 29°34' W 094°25'2 3.7
2018-Apr-16 10:30N 29°34' W 094°28'3 3.9
2018-Apr-16 09:50N 29°31' W 094°29'2 5.0
2018-Apr-16 09:25N 29°31' W 094°32'1 2.6
2018-Apr-16 08:55N 29°30' W 094°33'1 1.3
2018-Apr-16 08:29N 29°30' W 094°34'2 4.8
2018-Apr-16 08:00N 29°29' W 094°36'12 4.3
2018-Apr-16 05:21N 29°22' W 094°47'9 5.5
2018-Apr-16 03:42N 29°30' W 094°52'2 6.3
2018-Apr-16 03:22N 29°32' W 094°54'2 6.0
2018-Apr-16 03:00N 29°34' W 094°55'3 6.1
2018-Apr-16 02:30N 29°36' W 094°57'3 6.1
2018-Apr-16 02:00N 29°39' W 094°58'3 5.9
2018-Apr-16 01:30N 29°42' W 094°60'3 5.1
2018-Apr-16 00:54N 29°44' W 095°02'1 1.4
2018-Apr-16 00:29N 29°44' W 095°03'1 3.0
2018-Apr-16 00:00N 29°44' W 095°01'0 0.0
2018-Apr-15 23:30N 29°44' W 095°01'0 0.0
2018-Apr-15 23:00N 29°44' W 095°01'0 0.0
2018-Apr-15 22:30N 29°44' W 095°01'0 0.0
2018-Apr-15 21:51N 29°44' W 095°01'0 0.0
2018-Apr-15 21:29N 29°44' W 095°01'0 0.0
2018-Apr-15 20:59N 29°44' W 095°01'2 3.2
2018-Apr-15 20:30N 29°42' W 095°01'1 3.0
2018-Apr-15 20:00N 29°42' W 095°03'0 0.9
2018-Apr-15 19:30N 29°42' W 095°02'2 3.2
2018-Apr-15 18:59N 29°44' W 095°01'0 0.3
2018-Apr-15 18:28N 29°44' W 095°01'0 0.0
2018-Apr-15 18:00N 29°44' W 095°01'0 0.0
2018-Apr-15 17:30N 29°44' W 095°01'0 0.0
2018-Apr-15 17:00N 29°44' W 095°01'0 0.0
2018-Apr-15 16:30N 29°44' W 095°01'0 0.0
2018-Apr-15 16:00N 29°44' W 095°01'0 0.0
2018-Apr-15 14:11N 29°44' W 095°01'0 0.0
2018-Apr-15 13:53N 29°44' W 095°01'0 0.0
2018-Apr-15 00:44N 29°44' W 095°01'0 0.0
2018-Apr-14 18:58N 29°44' W 095°01'0 0.0
2018-Apr-14 16:02N 29°44' W 095°01'0 0.0
2018-Apr-14 14:08N 29°44' W 095°01'0 0.0
2018-Apr-14 09:34N 29°44' W 095°01'0 0.9
2018-Apr-14 09:18N 29°44' W 095°01'1 3.8
2018-Apr-14 09:00N 29°42' W 095°01'1 2.6
2018-Apr-14 08:26N 29°43' W 095°03'0 0.1
2018-Apr-14 08:00N 29°43' W 095°03'0 0.0
2018-Apr-14 07:30N 29°43' W 095°03'0 0.0
2018-Apr-14 06:59N 29°43' W 095°03'0 0.0
2018-Apr-14 06:30N 29°43' W 095°03'0 0.0
2018-Apr-14 06:00N 29°43' W 095°03'0 0.0
2018-Apr-14 05:30N 29°43' W 095°03'0 0.0
2018-Apr-14 05:00N 29°43' W 095°03'0 0.0
2018-Apr-14 04:30N 29°43' W 095°03'0 0.0
2018-Apr-14 04:00N 29°43' W 095°03'0 0.0
2018-Apr-14 03:25N 29°43' W 095°03'0 0.0
2018-Apr-14 02:58N 29°43' W 095°03'0 0.0
2018-Apr-14 02:28N 29°43' W 095°03'0 0.0
2018-Apr-14 02:00N 29°43' W 095°03'0 0.0
2018-Apr-14 01:28N 29°43' W 095°03'0 0.0
2018-Apr-14 00:37N 29°43' W 095°03'0 0.0
2018-Apr-14 00:26N 29°43' W 095°03'0 0.0
2018-Apr-13 23:59N 29°43' W 095°03'0 0.0
2018-Apr-13 23:30N 29°43' W 095°03'0 0.0
2018-Apr-13 23:00N 29°43' W 095°03'0 0.0
2018-Apr-13 22:30N 29°43' W 095°03'0 0.0
2018-Apr-13 22:00N 29°43' W 095°03'0 0.2
2018-Apr-13 21:30N 29°42' W 095°03'0 0.2
2018-Apr-13 21:00N 29°43' W 095°03'0 0.0
2018-Apr-13 20:30N 29°43' W 095°03'0 0.0
2018-Apr-13 20:00N 29°43' W 095°03'0 0.0
2018-Apr-13 19:30N 29°43' W 095°03'0 0.0
2018-Apr-13 18:59N 29°43' W 095°03'0 0.2
2018-Apr-13 18:30N 29°43' W 095°03'1 2.7
2018-Apr-13 18:00N 29°42' W 095°01'1 2.9
2018-Apr-13 17:30N 29°44' W 095°02'1 2.5
2018-Apr-13 17:00N 29°44' W 095°03'0 0.3
2018-Apr-13 16:30N 29°44' W 095°03'0 0.0
2018-Apr-13 15:58N 29°44' W 095°03'0 0.0
2018-Apr-13 15:28N 29°44' W 095°03'0 0.0
2018-Apr-13 14:59N 29°44' W 095°03'0 0.0
2018-Apr-13 14:30N 29°44' W 095°03'0 0.0
2018-Apr-13 13:58N 29°44' W 095°03'0 0.0
2018-Apr-13 13:25N 29°44' W 095°03'0 0.0
2018-Apr-13 12:54N 29°44' W 095°03'0 0.0
2018-Apr-13 12:17N 29°44' W 095°03'0 0.0
2018-Apr-13 12:00N 29°44' W 095°03'0 0.0
2018-Apr-13 11:27N 29°44' W 095°03'0 0.0
2018-Apr-13 09:47N 29°44' W 095°03'0 0.0
2018-Apr-13 09:29N 29°44' W 095°03'0 0.0
2018-Apr-13 09:00N 29°44' W 095°03'0 0.0
2018-Apr-13 08:30N 29°44' W 095°03'0 0.0
2018-Apr-13 07:58N 29°44' W 095°03'0 0.0
2018-Apr-13 07:27N 29°44' W 095°03'0 0.0
2018-Apr-13 06:59N 29°44' W 095°03'0 0.0
2018-Apr-13 06:30N 29°44' W 095°03'0 0.0
2018-Apr-13 06:00N 29°44' W 095°03'  
Track history (hours):
 
Tides and Currents Weather Stations Pressure Air Temp Water Temp Dewpoint Dewpoint Depression Visibility Wind Speed Wind Dir Waves Ship Positions

Capt. Shawn D. Martinez

Owner: Blessey, Enterprises, Inc., Harahan, LA. More information available from US FCC via Universal Licensing System and Coast Guard Vessel Documentation Center.

Last reported at 2018-Apr-23 05:30 UTC. Time now 2018-Apr-23 05:42 UTC.
Position N 32°20' W 090°54'.

Type: Towing. MMSI: 367056256.

Date/timePositionNaut miles runAvg speedWind from/ knotsBaromVisibWave heightAir tempDewpointWater temp
2018-Apr-23 05:30N 32°20' W 090°54'0 0.0
2018-Apr-23 05:00N 32°20' W 090°54'0 0.0
2018-Apr-23 04:30N 32°20' W 090°54'0 0.0
2018-Apr-23 04:00N 32°20' W 090°54'0 0.0
2018-Apr-23 03:30N 32°20' W 090°54'0 0.0
2018-Apr-23 03:00N 32°20' W 090°54'0 0.0
2018-Apr-23 02:29N 32°20' W 090°54'0 0.0
2018-Apr-23 02:00N 32°20' W 090°54'0 0.0
2018-Apr-23 01:30N 32°20' W 090°54'0 0.0
2018-Apr-23 01:00N 32°20' W 090°54'0 0.0
2018-Apr-23 00:30N 32°20' W 090°54'0 0.0
2018-Apr-23 00:00N 32°20' W 090°54'0 0.0
2018-Apr-22 23:30N 32°20' W 090°54'0 0.0
2018-Apr-22 23:00N 32°20' W 090°54'0 0.0
2018-Apr-22 22:30N 32°20' W 090°54'0 0.0
2018-Apr-22 22:00N 32°20' W 090°54'0 0.1
2018-Apr-22 21:30N 32°20' W 090°54'0 0.1
2018-Apr-22 21:00N 32°20' W 090°54'0 0.0
2018-Apr-22 20:30N 32°20' W 090°54'0 0.0
2018-Apr-22 20:00N 32°20' W 090°54'0 0.0
2018-Apr-22 19:30N 32°20' W 090°54'0 0.0
2018-Apr-22 19:00N 32°20' W 090°54'0 0.0
2018-Apr-22 18:30N 32°20' W 090°54'0 0.0
2018-Apr-22 17:59N 32°20' W 090°54'0 0.0
2018-Apr-22 17:30N 32°20' W 090°54'0 0.0
2018-Apr-22 17:00N 32°20' W 090°54'0 0.0
2018-Apr-22 16:30N 32°20' W 090°54'0 0.0
2018-Apr-22 16:00N 32°20' W 090°54'0 0.0
2018-Apr-22 15:30N 32°20' W 090°54'0 0.0
2018-Apr-22 14:59N 32°20' W 090°54'0 0.0
2018-Apr-22 14:29N 32°20' W 090°54'0 0.0
2018-Apr-22 14:00N 32°20' W 090°54'0 0.0
2018-Apr-22 13:29N 32°20' W 090°54'0 0.0
2018-Apr-22 12:57N 32°20' W 090°54'0 0.0
2018-Apr-22 12:30N 32°20' W 090°54'0 0.0
2018-Apr-22 12:00N 32°20' W 090°54'0 0.0
2018-Apr-22 11:29N 32°20' W 090°54'0 0.0
2018-Apr-22 11:00N 32°20' W 090°54'0 0.0
2018-Apr-22 10:30N 32°20' W 090°54'0 0.0
2018-Apr-22 10:00N 32°20' W 090°54'0 0.0
2018-Apr-22 09:30N 32°20' W 090°54'0 0.0
2018-Apr-22 09:00N 32°20' W 090°54'0 0.0
2018-Apr-22 08:30N 32°20' W 090°54'0 0.0
2018-Apr-22 08:00N 32°20' W 090°54'0 0.0
2018-Apr-22 07:30N 32°20' W 090°54'0 0.0
2018-Apr-22 06:59N 32°20' W 090°54'0 0.0
2018-Apr-22 06:30N 32°20' W 090°54'0 0.0
2018-Apr-22 06:00N 32°20' W 090°54'0 0.0
2018-Apr-22 05:30N 32°20' W 090°54'0 0.0
2018-Apr-22 05:00N 32°20' W 090°54'0 0.0
2018-Apr-22 04:30N 32°20' W 090°54'0 0.0
2018-Apr-22 04:00N 32°20' W 090°54'0 0.0
2018-Apr-22 03:30N 32°20' W 090°54'0 0.0
2018-Apr-22 03:00N 32°20' W 090°54'0 0.0
2018-Apr-22 02:30N 32°20' W 090°54'0 0.0
2018-Apr-22 02:00N 32°20' W 090°54'0 0.0
2018-Apr-22 01:30N 32°20' W 090°54'0 0.0
2018-Apr-22 01:00N 32°20' W 090°54'0 0.1
2018-Apr-22 00:30N 32°20' W 090°54'1 2.3
2018-Apr-22 00:00N 32°19' W 090°54'1 1.4
2018-Apr-21 23:30N 32°19' W 090°55'0 0.0
2018-Apr-21 23:00N 32°19' W 090°55'1 2.0
2018-Apr-21 22:30N 32°18' W 090°56'2 4.2
2018-Apr-21 22:00N 32°16' W 090°57'2 4.4
2018-Apr-21 21:30N 32°14' W 090°58'2 4.8
2018-Apr-21 21:00N 32°12' W 090°59'2 4.0
2018-Apr-21 20:30N 32°10' W 090°60'2 4.3
2018-Apr-21 20:00N 32°08' W 091°00'2 3.7
2018-Apr-21 19:30N 32°08' W 091°02'2 3.2
2018-Apr-21 19:00N 32°08' W 091°04'1 2.6
2018-Apr-21 18:30N 32°07' W 091°06'2 3.4
2018-Apr-21 17:53N 32°05' W 091°05'2 4.4
2018-Apr-21 17:23N 32°03' W 091°05'  
2018-Apr-17 15:39N 29°56' W 093°03'1 4.3
2018-Apr-17 15:27N 29°56' W 093°04'1 1.3
2018-Apr-17 15:00N 29°56' W 093°05'2 3.7
2018-Apr-17 14:30N 29°56' W 093°07'2 4.4
2018-Apr-17 14:00N 29°56' W 093°10'1 2.9
2018-Apr-17 13:30N 29°57' W 093°11'2 4.6
2018-Apr-17 13:00N 29°59' W 093°12'2 4.4
2018-Apr-17 12:30N 30°01' W 093°14'1 2.8
2018-Apr-17 12:00N 30°02' W 093°15'1 2.7
2018-Apr-17 11:30N 30°03' W 093°16'2 4.0
2018-Apr-17 11:00N 30°05' W 093°17'1 2.1
2018-Apr-17 10:30N 30°05' W 093°18'1 2.2
2018-Apr-17 10:00N 30°06' W 093°19'0 0.1
2018-Apr-17 09:30N 30°06' W 093°19'0 0.0
2018-Apr-17 09:00N 30°06' W 093°19'0 0.0
2018-Apr-17 08:30N 30°06' W 093°19'0 0.0
2018-Apr-17 08:00N 30°06' W 093°19'0 0.0
2018-Apr-17 07:30N 30°06' W 093°19'0 0.0
2018-Apr-17 07:00N 30°06' W 093°19'0 0.0
2018-Apr-17 06:30N 30°06' W 093°19'0 0.0
2018-Apr-17 06:00N 30°06' W 093°19'0 0.0
2018-Apr-17 05:30N 30°06' W 093°19'0 0.0
2018-Apr-17 05:00N 30°06' W 093°19'0 0.0
2018-Apr-17 04:30N 30°06' W 093°19'0 0.0
2018-Apr-17 04:00N 30°06' W 093°19'0 0.0
2018-Apr-17 03:30N 30°06' W 093°19'0 0.0
2018-Apr-17 03:00N 30°06' W 093°19'0 0.1
2018-Apr-17 02:30N 30°06' W 093°19'2 3.4
2018-Apr-17 02:00N 30°05' W 093°20'2 3.3
2018-Apr-17 01:30N 30°04' W 093°22'2 3.5
2018-Apr-17 00:59N 30°04' W 093°24'2 4.3
2018-Apr-17 00:30N 30°04' W 093°26'3 5.4
2018-Apr-17 00:00N 30°04' W 093°29'3 5.1
2018-Apr-16 23:30N 30°04' W 093°32'3 5.7
2018-Apr-16 23:00N 30°04' W 093°35'3 6.0
2018-Apr-16 22:30N 30°04' W 093°39'3 4.9
2018-Apr-16 21:55N 30°03' W 093°42'2 5.3
2018-Apr-16 21:30N 30°02' W 093°44'3 5.6
2018-Apr-16 21:00N 29°60' W 093°46'2 4.6
2018-Apr-16 20:30N 29°59' W 093°49'3 5.4
2018-Apr-16 20:00N 29°58' W 093°51'3 5.6
2018-Apr-16 19:30N 29°55' W 093°53'3 6.6
2018-Apr-16 19:00N 29°53' W 093°55'3 5.4
2018-Apr-16 18:30N 29°50' W 093°57'2 3.7
2018-Apr-16 18:00N 29°49' W 093°59'1 2.3
2018-Apr-16 17:30N 29°49' W 093°60'3 5.2
2018-Apr-16 17:00N 29°47' W 094°02'2 4.6
2018-Apr-16 16:30N 29°45' W 094°04'2 4.9
2018-Apr-16 16:00N 29°44' W 094°06'2 4.8
2018-Apr-16 15:30N 29°42' W 094°08'2 4.0
2018-Apr-16 15:00N 29°41' W 094°10'2 3.8
2018-Apr-16 14:28N 29°41' W 094°13'2 4.5
2018-Apr-16 14:00N 29°40' W 094°15'2 4.2
2018-Apr-16 13:30N 29°39' W 094°17'2 3.4
2018-Apr-16 13:00N 29°38' W 094°19'2 4.4
2018-Apr-16 12:30N 29°37' W 094°21'2 3.8
2018-Apr-16 12:00N 29°36' W 094°23'2 3.5
2018-Apr-16 11:30N 29°36' W 094°25'2 3.7
2018-Apr-16 11:00N 29°34' W 094°25'2 3.7
2018-Apr-16 10:30N 29°34' W 094°28'3 3.9
2018-Apr-16 09:50N 29°31' W 094°29'2 5.0
2018-Apr-16 09:25N 29°31' W 094°32'1 2.6
2018-Apr-16 08:55N 29°30' W 094°33'1 1.3
2018-Apr-16 08:29N 29°30' W 094°34'2 4.8
2018-Apr-16 08:00N 29°29' W 094°36'12 4.3
2018-Apr-16 05:21N 29°22' W 094°47'9 5.5
2018-Apr-16 03:42N 29°30' W 094°52'2 6.3
2018-Apr-16 03:22N 29°32' W 094°54'2 6.0
2018-Apr-16 03:00N 29°34' W 094°55'3 6.1
2018-Apr-16 02:30N 29°36' W 094°57'3 6.1
2018-Apr-16 02:00N 29°39' W 094°58'3 5.9
2018-Apr-16 01:30N 29°42' W 094°60'3 5.1
2018-Apr-16 00:54N 29°44' W 095°02'1 1.4
2018-Apr-16 00:29N 29°44' W 095°03'1 3.0
2018-Apr-16 00:00N 29°44' W 095°01'0 0.0
2018-Apr-15 23:30N 29°44' W 095°01'0 0.0
2018-Apr-15 23:00N 29°44' W 095°01'0 0.0
2018-Apr-15 22:30N 29°44' W 095°01'0 0.0
2018-Apr-15 21:51N 29°44' W 095°01'0 0.0
2018-Apr-15 21:29N 29°44' W 095°01'0 0.0
2018-Apr-15 20:59N 29°44' W 095°01'2 3.2
2018-Apr-15 20:30N 29°42' W 095°01'1 3.0
2018-Apr-15 20:00N 29°42' W 095°03'0 0.9
2018-Apr-15 19:30N 29°42' W 095°02'2 3.2
2018-Apr-15 18:59N 29°44' W 095°01'0 0.3
2018-Apr-15 18:28N 29°44' W 095°01'0 0.0
2018-Apr-15 18:00N 29°44' W 095°01'0 0.0
2018-Apr-15 17:30N 29°44' W 095°01'0 0.0
2018-Apr-15 17:00N 29°44' W 095°01'0 0.0
2018-Apr-15 16:30N 29°44' W 095°01'0 0.0
2018-Apr-15 16:00N 29°44' W 095°01'0 0.0
2018-Apr-15 14:11N 29°44' W 095°01'0 0.0
2018-Apr-15 13:53N 29°44' W 095°01'0 0.0
2018-Apr-15 00:44N 29°44' W 095°01'0 0.0
2018-Apr-14 18:58N 29°44' W 095°01'0 0.0
2018-Apr-14 16:02N 29°44' W 095°01'0 0.0
2018-Apr-14 14:08N 29°44' W 095°01'0 0.0
2018-Apr-14 09:34N 29°44' W 095°01'0 0.9
2018-Apr-14 09:18N 29°44' W 095°01'1 3.8
2018-Apr-14 09:00N 29°42' W 095°01'1 2.6
2018-Apr-14 08:26N 29°43' W 095°03'0 0.1
2018-Apr-14 08:00N 29°43' W 095°03'0 0.0
2018-Apr-14 07:30N 29°43' W 095°03'0 0.0
2018-Apr-14 06:59N 29°43' W 095°03'0 0.0
2018-Apr-14 06:30N 29°43' W 095°03'0 0.0
2018-Apr-14 06:00N 29°43' W 095°03'0 0.0
2018-Apr-14 05:30N 29°43' W 095°03'0 0.0
2018-Apr-14 05:00N 29°43' W 095°03'0 0.0
2018-Apr-14 04:30N 29°43' W 095°03'0 0.0
2018-Apr-14 04:00N 29°43' W 095°03'0 0.0
2018-Apr-14 03:25N 29°43' W 095°03'0 0.0
2018-Apr-14 02:58N 29°43' W 095°03'0 0.0
2018-Apr-14 02:28N 29°43' W 095°03'0 0.0
2018-Apr-14 02:00N 29°43' W 095°03'0 0.0
2018-Apr-14 01:28N 29°43' W 095°03'0 0.0
2018-Apr-14 00:37N 29°43' W 095°03'0 0.0
2018-Apr-14 00:26N 29°43' W 095°03'0 0.0
2018-Apr-13 23:59N 29°43' W 095°03'0 0.0
2018-Apr-13 23:30N 29°43' W 095°03'0 0.0
2018-Apr-13 23:00N 29°43' W 095°03'0 0.0
2018-Apr-13 22:30N 29°43' W 095°03'0 0.0
2018-Apr-13 22:00N 29°43' W 095°03'0 0.2
2018-Apr-13 21:30N 29°42' W 095°03'0 0.2
2018-Apr-13 21:00N 29°43' W 095°03'0 0.0
2018-Apr-13 20:30N 29°43' W 095°03'0 0.0
2018-Apr-13 20:00N 29°43' W 095°03'0 0.0
2018-Apr-13 19:30N 29°43' W 095°03'0 0.0
2018-Apr-13 18:59N 29°43' W 095°03'0 0.2
2018-Apr-13 18:30N 29°43' W 095°03'1 2.7
2018-Apr-13 18:00N 29°42' W 095°01'1 2.9
2018-Apr-13 17:30N 29°44' W 095°02'1 2.5
2018-Apr-13 17:00N 29°44' W 095°03'0 0.3
2018-Apr-13 16:30N 29°44' W 095°03'0 0.0
2018-Apr-13 15:58N 29°44' W 095°03'0 0.0
2018-Apr-13 15:28N 29°44' W 095°03'0 0.0
2018-Apr-13 14:59N 29°44' W 095°03'0 0.0
2018-Apr-13 14:30N 29°44' W 095°03'0 0.0
2018-Apr-13 13:58N 29°44' W 095°03'0 0.0
2018-Apr-13 13:25N 29°44' W 095°03'0 0.0
2018-Apr-13 12:54N 29°44' W 095°03'0 0.0
2018-Apr-13 12:17N 29°44' W 095°03'0 0.0
2018-Apr-13 12:00N 29°44' W 095°03'0 0.0
2018-Apr-13 11:27N 29°44' W 095°03'0 0.0
2018-Apr-13 09:47N 29°44' W 095°03'0 0.0
2018-Apr-13 09:29N 29°44' W 095°03'0 0.0
2018-Apr-13 09:00N 29°44' W 095°03'0 0.0
2018-Apr-13 08:30N 29°44' W 095°03'0 0.0
2018-Apr-13 07:58N 29°44' W 095°03'0 0.0
2018-Apr-13 07:27N 29°44' W 095°03'0 0.0
2018-Apr-13 06:59N 29°44' W 095°03'0 0.0
2018-Apr-13 06:30N 29°44' W 095°03'0 0.0
2018-Apr-13 06:00N 29°44' W 095°03'  

Dump ship's entire track history